This is the latest recevied weather packets stored in our database for station/object AG1T-20. If no packets are shown the sender has not sent any weather packets the latest 10 day(s).
| Time | Temp. | Humidity | Pressure | Rain* | Wind** | Luminosity | Snow |
|---|---|---|---|---|---|---|---|
| 1787408404 | 21.11° C | 56% | 1024.6 hPa | 0 mm | - | 138 W/m² | - |
| 1787407804 | 21.11° C | 57% | 1024.6 hPa | 0 mm | - | 114 W/m² | - |
| 1787407204 | 21.11° C | 56% | 1024.6 hPa | 0 mm | - | 102 W/m² | - |
| 1787406604 | 21.67° C | 56% | 1024.6 hPa | 0 mm | - | 146 W/m² | - |
| 1787406005 | 21.67° C | 56% | 1024.6 hPa | 0 mm | - | 206 W/m² | - |
| 1787405404 | 21.11° C | 57% | 1024.6 hPa | 0 mm | - | 65 W/m² | - |
| 1787404804 | 21.67° C | 56% | 1024.6 hPa | 0 mm | - | 52 W/m² | - |
| 1787404204 | 21.11° C | 58% | 1024.6 hPa | 0 mm | - | 38 W/m² | - |
| 1787403604 | 21.11° C | 57% | 1024.6 hPa | 0 mm | - | 25 W/m² | - |
| 1787403004 | 21.11° C | 56% | 1024.3 hPa | 0 mm | - | 13 W/m² | - |
| 1787402408 | 21.11° C | 56% | 1024.3 hPa | 0 mm | - | 1 W/m² | - |
| 1787401805 | 20.56° C | 59% | 1024.3 hPa | 0 mm | - | 0 W/m² | - |
| 1787401204 | 21.11° C | 56% | 1024.3 hPa | 0 mm | - | 0 W/m² | - |
| 1787400605 | 21.11° C | 56% | 1024.3 hPa | 0 mm | - | 0 W/m² | - |
| 1787400005 | 21.11° C | 57% | 1024.3 hPa | 0 mm | - | 0 W/m² | - |
| 1787399405 | 21.11° C | 57% | 1024.3 hPa | 0 mm | - | 0 W/m² | - |
| 1787398805 | 21.11° C | 55% | 1024.3 hPa | 0 mm | - | 0 W/m² | - |
| 1787398205 | 21.67° C | 55% | 1024.3 hPa | 0 mm | - | 0 W/m² | - |
| 1787397604 | 21.67° C | 55% | 1024.3 hPa | 0 mm | - | 0 W/m² | - |
| 1787397005 | 21.67° C | 53% | 1024.3 hPa | 0 mm | - | 0 W/m² | - |
| 1787396404 | 22.22° C | 51% | 1024.3 hPa | 0 mm | - | 0 W/m² | - |
| 1787395804 | 22.22° C | 51% | 1024.5 hPa | 0 mm | - | 0 W/m² | - |
| 1787395205 | 22.78° C | 50% | 1024.5 hPa | 0 mm | - | 0 W/m² | - |
| 1787394604 | 22.78° C | 51% | 1024.5 hPa | 0 mm | - | 0 W/m² | - |
| 1787394005 | 22.78° C | 50% | 1024.5 hPa | 0 mm | - | 0 W/m² | - |
* Rain latest hour (hover to see other rain measurements)
** Current wind speed in m/s (hover to see current wind gust speed)